sensor_id;sensor_type;location;lat;lon;timestamp;pressure;altitude;pressure_sealevel;temperature;humidity
37486;BME280;23341;50.296;18.960;2023-04-09T00:00:14;51681.72;;;-144.43;100.00
37486;BME280;23341;50.296;18.960;2023-04-09T00:05:39;51707.72;;;-144.43;100.00
37486;BME280;23341;50.296;18.960;2023-04-09T00:10:45;51663.72;;;-144.43;100.00
37486;BME280;23341;50.296;18.960;2023-04-09T00:15:49;51685.72;;;-144.43;100.00
37486;BME280;23341;50.296;18.960;2023-04-09T00:20:53;51675.72;;;-144.43;100.00
37486;BME280;23341;50.296;18.960;2023-04-09T00:25:59;51685.72;;;-144.43;100.00
37486;BME280;23341;50.296;18.960;2023-04-09T00:31:04;51673.72;;;-144.43;100.00
37486;BME280;23341;50.296;18.960;2023-04-09T00:36:09;51689.72;;;-144.43;100.00
37486;BME280;23341;50.296;18.960;2023-04-09T00:41:16;51665.72;;;-144.43;100.00
37486;BME280;23341;50.296;18.960;2023-04-09T00:46:21;51649.72;;;-144.43;100.00
37486;BME280;23341;50.296;18.960;2023-04-09T00:51:26;51673.72;;;-144.43;100.00
37486;BME280;23341;50.296;18.960;2023-04-09T00:56:32;51685.72;;;-144.43;100.00
37486;BME280;23341;50.296;18.960;2023-04-09T01:01:37;51703.72;;;-144.43;100.00
37486;BME280;23341;50.296;18.960;2023-04-09T01:06:46;51703.72;;;-144.43;100.00
37486;BME280;23341;50.296;18.960;2023-04-09T01:12:02;51705.72;;;-144.43;100.00
37486;BME280;23341;50.296;18.960;2023-04-09T01:17:17;51687.72;;;-144.43;100.00
37486;BME280;23341;50.296;18.960;2023-04-09T01:22:31;51681.72;;;-144.43;100.00
37486;BME280;23341;50.296;18.960;2023-04-09T01:27:46;51665.72;;;-144.43;100.00
37486;BME280;23341;50.296;18.960;2023-04-09T01:32:56;51647.72;;;-144.43;100.00
37486;BME280;23341;50.296;18.960;2023-04-09T01:38:01;51669.72;;;-144.43;100.00
37486;BME280;23341;50.296;18.960;2023-04-09T01:43:07;51641.72;;;-144.43;100.00
37486;BME280;23341;50.296;18.960;2023-04-09T01:48:13;51645.72;;;-144.43;100.00
37486;BME280;23341;50.296;18.960;2023-04-09T01:53:19;51619.72;;;-144.43;100.00
37486;BME280;23341;50.296;18.960;2023-04-09T01:58:24;51617.72;;;-144.43;100.00
37486;BME280;23341;50.296;18.960;2023-04-09T02:03:32;51639.72;;;-144.43;100.00
37486;BME280;23341;50.296;18.960;2023-04-09T02:08:39;51669.72;;;-144.43;100.00
37486;BME280;23341;50.296;18.960;2023-04-09T02:13:45;51649.72;;;-144.43;100.00
37486;BME280;23341;50.296;18.960;2023-04-09T02:18:54;51641.72;;;-144.43;100.00
37486;BME280;23341;50.296;18.960;2023-04-09T02:23:59;51659.72;;;-144.43;100.00
37486;BME280;23341;50.296;18.960;2023-04-09T02:29:03;51629.72;;;-144.43;100.00
37486;BME280;23341;50.296;18.960;2023-04-09T02:34:09;51669.72;;;-144.43;100.00
37486;BME280;23341;50.296;18.960;2023-04-09T02:39:13;51643.72;;;-144.43;100.00
37486;BME280;23341;50.296;18.960;2023-04-09T02:44:17;51641.72;;;-144.43;100.00
37486;BME280;23341;50.296;18.960;2023-04-09T02:49:23;51649.72;;;-144.43;100.00
37486;BME280;23341;50.296;18.960;2023-04-09T02:54:28;51673.72;;;-144.43;100.00
37486;BME280;23341;50.296;18.960;2023-04-09T02:59:32;51665.72;;;-144.43;100.00
37486;BME280;23341;50.296;18.960;2023-04-09T03:04:39;51649.72;;;-144.43;100.00
37486;BME280;23341;50.296;18.960;2023-04-09T03:09:43;51665.72;;;-144.43;100.00
37486;BME280;23341;50.296;18.960;2023-04-09T03:14:48;51649.72;;;-144.43;100.00
37486;BME280;23341;50.296;18.960;2023-04-09T03:19:54;51665.72;;;-144.43;100.00
37486;BME280;23341;50.296;18.960;2023-04-09T03:25:07;51671.72;;;-144.43;100.00
37486;BME280;23341;50.296;18.960;2023-04-09T03:30:12;51675.72;;;-144.43;100.00
37486;BME280;23341;50.296;18.960;2023-04-09T03:35:21;51703.72;;;-144.43;100.00
37486;BME280;23341;50.296;18.960;2023-04-09T03:40:31;51693.72;;;-144.43;100.00
37486;BME280;23341;50.296;18.960;2023-04-09T03:45:36;51669.72;;;-144.43;100.00
37486;BME280;23341;50.296;18.960;2023-04-09T03:51:01;51677.72;;;-144.43;100.00
37486;BME280;23341;50.296;18.960;2023-04-09T03:56:12;51671.72;;;-144.43;100.00
37486;BME280;23341;50.296;18.960;2023-04-09T04:01:17;51669.72;;;-144.43;100.00
37486;BME280;23341;50.296;18.960;2023-04-09T04:06:34;51671.72;;;-144.43;100.00
37486;BME280;23341;50.296;18.960;2023-04-09T04:11:57;51693.72;;;-144.43;100.00
37486;BME280;23341;50.296;18.960;2023-04-09T04:17:15;51667.72;;;-144.43;100.00
37486;BME280;23341;50.296;18.960;2023-04-09T04:22:21;51683.72;;;-144.43;100.00
37486;BME280;23341;50.296;18.960;2023-04-09T04:27:32;51685.72;;;-144.43;100.00
37486;BME280;23341;50.296;18.960;2023-04-09T04:32:37;51701.72;;;-144.43;100.00
37486;BME280;23341;50.296;18.960;2023-04-09T04:37:48;51663.72;;;-144.43;100.00
37486;BME280;23341;50.296;18.960;2023-04-09T04:42:53;51693.72;;;-144.43;100.00
37486;BME280;23341;50.296;18.960;2023-04-09T04:47:58;51715.72;;;-144.43;100.00
37486;BME280;23341;50.296;18.960;2023-04-09T04:53:03;51699.72;;;-144.43;100.00
37486;BME280;23341;50.296;18.960;2023-04-09T04:58:17;51687.72;;;-144.43;100.00
37486;BME280;23341;50.296;18.960;2023-04-09T05:03:27;51733.72;;;-144.43;100.00
37486;BME280;23341;50.296;18.960;2023-04-09T05:08:38;51685.72;;;-144.43;100.00
37486;BME280;23341;50.296;18.960;2023-04-09T05:13:43;51719.72;;;-144.43;100.00
37486;BME280;23341;50.296;18.960;2023-04-09T05:18:48;51733.72;;;-144.43;100.00
37486;BME280;23341;50.296;18.960;2023-04-09T05:23:55;51719.72;;;-144.43;100.00
37486;BME280;23341;50.296;18.960;2023-04-09T05:29:00;51745.72;;;-144.43;100.00
37486;BME280;23341;50.296;18.960;2023-04-09T05:34:04;51709.72;;;-144.43;100.00
37486;BME280;23341;50.296;18.960;2023-04-09T05:39:15;51709.72;;;-144.43;100.00
37486;BME280;23341;50.296;18.960;2023-04-09T05:44:20;51713.72;;;-144.43;100.00
37486;BME280;23341;50.296;18.960;2023-04-09T05:49:26;51689.72;;;-144.43;100.00
37486;BME280;23341;50.296;18.960;2023-04-09T05:54:33;51695.72;;;-144.43;100.00
37486;BME280;23341;50.296;18.960;2023-04-09T05:59:41;51695.72;;;-144.43;100.00
37486;BME280;23341;50.296;18.960;2023-04-09T06:04:45;51685.72;;;-144.43;100.00
37486;BME280;23341;50.296;18.960;2023-04-09T06:09:51;51673.72;;;-144.43;100.00
37486;BME280;23341;50.296;18.960;2023-04-09T06:14:56;51685.72;;;-144.43;100.00
37486;BME280;23341;50.296;18.960;2023-04-09T06:20:02;51673.72;;;-144.43;100.00
37486;BME280;23341;50.296;18.960;2023-04-09T06:25:08;51597.72;;;-144.43;100.00
37486;BME280;23341;50.296;18.960;2023-04-09T06:30:12;51593.72;;;-144.43;100.00
37486;BME280;23341;50.296;18.960;2023-04-09T06:35:17;51577.72;;;-144.43;100.00
37486;BME280;23341;50.296;18.960;2023-04-09T06:40:22;51601.72;;;-144.43;100.00
37486;BME280;23341;50.296;18.960;2023-04-09T06:45:26;51597.72;;;-144.43;100.00
37486;BME280;23341;50.296;18.960;2023-04-09T06:50:31;51561.72;;;-144.43;100.00
37486;BME280;23341;50.296;18.960;2023-04-09T06:55:37;51595.72;;;-144.43;100.00
37486;BME280;23341;50.296;18.960;2023-04-09T07:00:42;51537.75;;;-144.43;100.00
37486;BME280;23341;50.296;18.960;2023-04-09T07:05:46;51533.75;;;-144.43;100.00
37486;BME280;23341;50.296;18.960;2023-04-09T07:10:52;51513.75;;;-144.43;100.00
37486;BME280;23341;50.296;18.960;2023-04-09T07:15:56;51475.75;;;-144.43;100.00
37486;BME280;23341;50.296;18.960;2023-04-09T07:21:00;51507.75;;;-144.43;100.00
37486;BME280;23341;50.296;18.960;2023-04-09T07:26:07;51531.75;;;-144.43;100.00
37486;BME280;23341;50.296;18.960;2023-04-09T07:31:12;51539.75;;;-144.43;100.00
37486;BME280;23341;50.296;18.960;2023-04-09T07:36:17;51597.72;;;-144.43;100.00
37486;BME280;23341;50.296;18.960;2023-04-09T07:41:23;51573.72;;;-144.43;100.00
37486;BME280;23341;50.296;18.960;2023-04-09T07:46:27;51539.75;;;-144.43;100.00
37486;BME280;23341;50.296;18.960;2023-04-09T07:51:32;51425.75;;;-144.43;100.00
37486;BME280;23341;50.296;18.960;2023-04-09T07:56:38;51483.75;;;-144.43;100.00
37486;BME280;23341;50.296;18.960;2023-04-09T08:01:42;51463.75;;;-144.43;99.93
37486;BME280;23341;50.296;18.960;2023-04-09T08:06:47;51457.75;;;-144.43;98.97
37486;BME280;23341;50.296;18.960;2023-04-09T08:11:54;51437.75;;;-144.43;99.36
37486;BME280;23341;50.296;18.960;2023-04-09T08:16:59;51449.75;;;-144.43;99.98
37486;BME280;23341;50.296;18.960;2023-04-09T08:22:04;51451.75;;;-144.43;99.59
37486;BME280;23341;50.296;18.960;2023-04-09T08:27:10;51445.75;;;-144.43;100.00
37486;BME280;23341;50.296;18.960;2023-04-09T08:32:15;51441.75;;;-144.43;100.00
37486;BME280;23341;50.296;18.960;2023-04-09T08:37:19;51517.75;;;-144.43;100.00
37486;BME280;23341;50.296;18.960;2023-04-09T08:42:25;51513.75;;;-144.43;100.00
37486;BME280;23341;50.296;18.960;2023-04-09T08:47:31;51537.75;;;-144.43;100.00
37486;BME280;23341;50.296;18.960;2023-04-09T08:52:36;51509.75;;;-144.43;100.00
37486;BME280;23341;50.296;18.960;2023-04-09T08:57:42;51505.75;;;-144.43;99.65
37486;BME280;23341;50.296;18.960;2023-04-09T09:03:00;51471.75;;;-144.43;98.63
37486;BME280;23341;50.296;18.960;2023-04-09T09:08:06;51457.75;;;-144.43;98.45
37486;BME280;23341;50.296;18.960;2023-04-09T09:13:21;51493.75;;;-144.43;99.25
37486;BME280;23341;50.296;18.960;2023-04-09T09:18:37;51421.75;;;-144.43;98.02
37486;BME280;23341;50.296;18.960;2023-04-09T09:23:42;51479.75;;;-144.43;97.42
37486;BME280;23341;50.296;18.960;2023-04-09T09:28:48;51445.75;;;-144.43;96.93
37486;BME280;23341;50.296;18.960;2023-04-09T09:33:53;51407.75;;;-144.43;96.66
37486;BME280;23341;50.296;18.960;2023-04-09T09:38:59;51413.75;;;-144.43;96.77
37486;BME280;23341;50.296;18.960;2023-04-09T09:44:08;51437.75;;;-144.43;96.92
37486;BME280;23341;50.296;18.960;2023-04-09T09:49:13;51395.75;;;-144.43;95.83
37486;BME280;23341;50.296;18.960;2023-04-09T09:54:20;51365.75;;;-144.43;96.88
37486;BME280;23341;50.296;18.960;2023-04-09T09:59:31;51367.75;;;-144.43;95.90
37486;BME280;23341;50.296;18.960;2023-04-09T10:04:37;51357.75;;;-144.43;95.31
37486;BME280;23341;50.296;18.960;2023-04-09T10:09:46;51391.75;;;-144.43;95.81
37486;BME280;23341;50.296;18.960;2023-04-09T10:14:54;51365.75;;;-144.43;94.45
37486;BME280;23341;50.296;18.960;2023-04-09T10:20:05;51401.75;;;-144.43;93.26
37486;BME280;23341;50.296;18.960;2023-04-09T10:25:11;51381.75;;;-144.43;91.38
37486;BME280;23341;50.296;18.960;2023-04-09T10:30:33;51389.75;;;-144.43;89.53
37486;BME280;23341;50.296;18.960;2023-04-09T10:35:37;51403.75;;;-144.43;89.25
37486;BME280;23341;50.296;18.960;2023-04-09T10:40:46;51343.78;;;-144.43;88.40
37486;BME280;23341;50.296;18.960;2023-04-09T10:45:56;51359.75;;;-144.43;88.98
37486;BME280;23341;50.296;18.960;2023-04-09T10:51:01;51421.75;;;-144.43;86.87
37486;BME280;23341;50.296;18.960;2023-04-09T10:56:14;51393.75;;;-144.43;85.85
37486;BME280;23341;50.296;18.960;2023-04-09T11:01:21;51281.78;;;-144.43;84.96
37486;BME280;23341;50.296;18.960;2023-04-09T11:06:28;51319.78;;;-144.43;87.61
37486;BME280;23341;50.296;18.960;2023-04-09T11:11:33;51279.78;;;-144.43;88.02
37486;BME280;23341;50.296;18.960;2023-04-09T11:16:40;51329.78;;;-144.43;87.67
37486;BME280;23341;50.296;18.960;2023-04-09T11:21:44;51367.75;;;-144.43;85.56
37486;BME280;23341;50.296;18.960;2023-04-09T11:26:49;51409.75;;;-144.43;83.88
37486;BME280;23341;50.296;18.960;2023-04-09T11:31:54;51337.78;;;-144.43;83.46
37486;BME280;23341;50.296;18.960;2023-04-09T11:36:59;51297.78;;;-144.43;84.08
37486;BME280;23341;50.296;18.960;2023-04-09T11:42:12;51405.75;;;-144.43;81.38
37486;BME280;23341;50.296;18.960;2023-04-09T11:47:19;51387.75;;;-144.43;80.06
37486;BME280;23341;50.296;18.960;2023-04-09T11:52:24;51441.75;;;-144.43;78.27
37486;BME280;23341;50.296;18.960;2023-04-09T11:57:40;51389.75;;;-144.43;75.50
37486;BME280;23341;50.296;18.960;2023-04-09T12:02:47;51391.75;;;-144.43;74.92
37486;BME280;23341;50.296;18.960;2023-04-09T12:07:56;51501.75;;;-144.43;76.02
37486;BME280;23341;50.296;18.960;2023-04-09T12:13:01;51607.72;;;-144.43;64.70
37486;BME280;23341;50.296;18.960;2023-04-09T12:18:09;51421.75;;;-144.43;65.96
37486;BME280;23341;50.296;18.960;2023-04-09T12:23:15;51409.75;;;-144.43;63.58
37486;BME280;23341;50.296;18.960;2023-04-09T12:28:19;51525.75;;;-144.43;63.66
37486;BME280;23341;50.296;18.960;2023-04-09T12:33:25;51585.72;;;-144.43;61.07
37486;BME280;23341;50.296;18.960;2023-04-09T12:38:29;51479.75;;;-144.43;60.94
37486;BME280;23341;50.296;18.960;2023-04-09T12:43:33;51409.75;;;-144.43;54.96
37486;BME280;23341;50.296;18.960;2023-04-09T12:48:39;51431.75;;;-144.43;56.93
37486;BME280;23341;50.296;18.960;2023-04-09T12:53:43;51401.75;;;-144.43;58.70
37486;BME280;23341;50.296;18.960;2023-04-09T12:58:48;51397.75;;;-144.43;57.73
37486;BME280;23341;50.296;18.960;2023-04-09T13:03:54;51329.78;;;-144.43;56.75
37486;BME280;23341;50.296;18.960;2023-04-09T13:09:00;51121.81;;;-144.43;59.42
37486;BME280;23341;50.296;18.960;2023-04-09T13:14:04;51127.81;;;-144.43;57.63
37486;BME280;23341;50.296;18.960;2023-04-09T13:19:10;51081.81;;;-144.43;59.15
37486;BME280;23341;50.296;18.960;2023-04-09T13:24:14;51065.81;;;-144.43;57.15
37486;BME280;23341;50.296;18.960;2023-04-09T13:29:18;51053.84;;;-144.43;57.20
37486;BME280;23341;50.296;18.960;2023-04-09T13:34:24;51013.84;;;-144.43;59.21
37486;BME280;23341;50.296;18.960;2023-04-09T13:39:29;51023.84;;;-144.43;60.02
37486;BME280;23341;50.296;18.960;2023-04-09T13:44:33;50905.88;;;-144.43;60.99
37486;BME280;23341;50.296;18.960;2023-04-09T13:49:40;50881.88;;;-144.43;62.76
37486;BME280;23341;50.296;18.960;2023-04-09T13:54:44;50805.91;;;-144.43;62.64
37486;BME280;23341;50.296;18.960;2023-04-09T13:59:49;50729.94;;;-144.43;68.28
37486;BME280;23341;50.296;18.960;2023-04-09T14:04:54;50591.97;;;-144.43;75.02
37486;BME280;23341;50.296;18.960;2023-04-09T14:09:59;50579.97;;;-144.43;88.17
37486;BME280;23341;50.296;18.960;2023-04-09T14:15:05;51013.84;;;-144.43;99.63
37486;BME280;23341;50.296;18.960;2023-04-09T14:20:12;51601.72;;;-144.43;100.00
37486;BME280;23341;50.296;18.960;2023-04-09T14:25:16;51733.72;;;-144.43;100.00
37486;BME280;23341;50.296;18.960;2023-04-09T14:30:21;51763.72;;;-144.43;100.00
37486;BME280;23341;50.296;18.960;2023-04-09T14:35:27;51543.75;;;-144.43;100.00
37486;BME280;23341;50.296;18.960;2023-04-09T14:40:31;51697.72;;;-144.43;100.00
37486;BME280;23341;50.296;18.960;2023-04-09T14:45:36;51725.72;;;-144.43;100.00
37486;BME280;23341;50.296;18.960;2023-04-09T14:50:41;51761.72;;;-144.43;100.00
37486;BME280;23341;50.296;18.960;2023-04-09T14:55:45;51743.72;;;-144.43;100.00
37486;BME280;23341;50.296;18.960;2023-04-09T15:00:50;51769.72;;;-144.43;100.00
37486;BME280;23341;50.296;18.960;2023-04-09T15:05:55;51749.72;;;-144.43;100.00
37486;BME280;23341;50.296;18.960;2023-04-09T15:11:00;51757.72;;;-144.43;100.00
37486;BME280;23341;50.296;18.960;2023-04-09T15:16:05;51721.72;;;-144.43;100.00
37486;BME280;23341;50.296;18.960;2023-04-09T15:21:11;51737.72;;;-144.43;100.00
37486;BME280;23341;50.296;18.960;2023-04-09T15:26:15;51697.72;;;-144.43;100.00
37486;BME280;23341;50.296;18.960;2023-04-09T15:31:19;51661.72;;;-144.43;96.00
37486;BME280;23341;50.296;18.960;2023-04-09T15:36:25;51581.72;;;-144.43;94.98
37486;BME280;23341;50.296;18.960;2023-04-09T15:41:31;51567.72;;;-144.43;94.72
37486;BME280;23341;50.296;18.960;2023-04-09T15:46:37;51565.72;;;-144.43;94.29
37486;BME280;23341;50.296;18.960;2023-04-09T15:51:42;51497.75;;;-144.43;94.75
37486;BME280;23341;50.296;18.960;2023-04-09T15:56:47;51453.75;;;-144.43;96.07
37486;BME280;23341;50.296;18.960;2023-04-09T16:01:51;51451.75;;;-144.43;97.16
37486;BME280;23341;50.296;18.960;2023-04-09T16:06:57;51487.75;;;-144.43;98.02
37486;BME280;23341;50.296;18.960;2023-04-09T16:12:01;51517.75;;;-144.43;98.13
37486;BME280;23341;50.296;18.960;2023-04-09T16:17:06;51471.75;;;-144.43;97.43
37486;BME280;23341;50.296;18.960;2023-04-09T16:22:11;51511.75;;;-144.43;97.99
37486;BME280;23341;50.296;18.960;2023-04-09T16:27:16;51505.75;;;-144.43;98.50
37486;BME280;23341;50.296;18.960;2023-04-09T16:32:20;51509.75;;;-144.43;98.97
37486;BME280;23341;50.296;18.960;2023-04-09T16:37:26;51501.75;;;-144.43;99.37
37486;BME280;23341;50.296;18.960;2023-04-09T16:42:31;51493.75;;;-144.43;99.96
37486;BME280;23341;50.296;18.960;2023-04-09T16:47:35;51507.75;;;-144.43;100.00
37486;BME280;23341;50.296;18.960;2023-04-09T16:52:41;51533.75;;;-144.43;100.00
37486;BME280;23341;50.296;18.960;2023-04-09T16:57:46;51529.75;;;-144.43;100.00
37486;BME280;23341;50.296;18.960;2023-04-09T17:02:50;51569.72;;;-144.43;100.00
37486;BME280;23341;50.296;18.960;2023-04-09T17:07:56;51595.72;;;-144.43;100.00
37486;BME280;23341;50.296;18.960;2023-04-09T17:13:00;51631.72;;;-144.43;100.00
37486;BME280;23341;50.296;18.960;2023-04-09T17:18:05;51631.72;;;-144.43;100.00
37486;BME280;23341;50.296;18.960;2023-04-09T17:23:11;51699.72;;;-144.43;100.00
37486;BME280;23341;50.296;18.960;2023-04-09T17:28:16;51741.72;;;-144.43;100.00
37486;BME280;23341;50.296;18.960;2023-04-09T17:33:21;51755.72;;;-144.43;100.00
37486;BME280;23341;50.296;18.960;2023-04-09T17:38:27;51783.72;;;-144.43;100.00
37486;BME280;23341;50.296;18.960;2023-04-09T17:43:32;51793.72;;;-144.43;100.00
37486;BME280;23341;50.296;18.960;2023-04-09T17:48:39;51765.72;;;-144.43;100.00
37486;BME280;23341;50.296;18.960;2023-04-09T17:53:45;51737.72;;;-144.43;100.00
37486;BME280;23341;50.296;18.960;2023-04-09T17:58:50;51755.72;;;-144.43;100.00
37486;BME280;23341;50.296;18.960;2023-04-09T18:03:55;51725.72;;;-144.43;100.00
37486;BME280;23341;50.296;18.960;2023-04-09T18:09:02;51645.72;;;-144.43;100.00
37486;BME280;23341;50.296;18.960;2023-04-09T18:14:06;51725.72;;;-144.43;100.00
37486;BME280;23341;50.296;18.960;2023-04-09T18:19:11;51689.72;;;-144.43;100.00
37486;BME280;23341;50.296;18.960;2023-04-09T18:24:17;51675.72;;;-144.43;100.00
37486;BME280;23341;50.296;18.960;2023-04-09T18:29:21;51711.72;;;-144.43;100.00
37486;BME280;23341;50.296;18.960;2023-04-09T18:34:25;51687.72;;;-144.43;100.00
37486;BME280;23341;50.296;18.960;2023-04-09T18:39:32;51691.72;;;-144.43;100.00
37486;BME280;23341;50.296;18.960;2023-04-09T18:44:38;51701.72;;;-144.43;100.00
37486;BME280;23341;50.296;18.960;2023-04-09T18:49:42;51709.72;;;-144.43;100.00
37486;BME280;23341;50.296;18.960;2023-04-09T18:54:48;51709.72;;;-144.43;100.00
37486;BME280;23341;50.296;18.960;2023-04-09T18:59:53;51703.72;;;-144.43;100.00
37486;BME280;23341;50.296;18.960;2023-04-09T19:04:57;51731.72;;;-144.43;100.00
37486;BME280;23341;50.296;18.960;2023-04-09T19:10:04;51707.72;;;-144.43;100.00
37486;BME280;23341;50.296;18.960;2023-04-09T19:15:10;51753.72;;;-144.43;100.00
37486;BME280;23341;50.296;18.960;2023-04-09T19:20:15;51761.72;;;-144.43;100.00
37486;BME280;23341;50.296;18.960;2023-04-09T19:25:21;51765.72;;;-144.43;100.00
37486;BME280;23341;50.296;18.960;2023-04-09T19:30:25;51743.72;;;-144.43;100.00
37486;BME280;23341;50.296;18.960;2023-04-09T19:35:30;51741.72;;;-144.43;100.00
37486;BME280;23341;50.296;18.960;2023-04-09T19:40:38;51743.72;;;-144.43;100.00
37486;BME280;23341;50.296;18.960;2023-04-09T19:45:43;51761.72;;;-144.43;100.00
37486;BME280;23341;50.296;18.960;2023-04-09T19:50:47;51775.72;;;-144.43;100.00
37486;BME280;23341;50.296;18.960;2023-04-09T19:55:53;51761.72;;;-144.43;100.00
37486;BME280;23341;50.296;18.960;2023-04-09T20:00:58;51769.72;;;-144.43;100.00
37486;BME280;23341;50.296;18.960;2023-04-09T20:06:05;51773.72;;;-144.43;100.00
37486;BME280;23341;50.296;18.960;2023-04-09T20:11:16;51775.72;;;-144.43;100.00
37486;BME280;23341;50.296;18.960;2023-04-09T20:16:20;51773.72;;;-144.43;100.00
37486;BME280;23341;50.296;18.960;2023-04-09T20:21:24;51795.72;;;-144.43;100.00
37486;BME280;23341;50.296;18.960;2023-04-09T20:26:31;51801.72;;;-144.43;100.00
37486;BME280;23341;50.296;18.960;2023-04-09T20:31:35;51815.72;;;-144.43;100.00
37486;BME280;23341;50.296;18.960;2023-04-09T20:36:39;51811.72;;;-144.43;100.00
37486;BME280;23341;50.296;18.960;2023-04-09T20:41:46;51817.72;;;-144.43;100.00
37486;BME280;23341;50.296;18.960;2023-04-09T20:46:51;51831.72;;;-144.43;100.00
37486;BME280;23341;50.296;18.960;2023-04-09T20:51:55;51821.72;;;-144.43;100.00
37486;BME280;23341;50.296;18.960;2023-04-09T20:57:01;51827.72;;;-144.43;100.00
37486;BME280;23341;50.296;18.960;2023-04-09T21:02:07;51833.72;;;-144.43;100.00
37486;BME280;23341;50.296;18.960;2023-04-09T21:07:12;51845.72;;;-144.43;100.00
37486;BME280;23341;50.296;18.960;2023-04-09T21:12:18;51865.72;;;-144.43;100.00
37486;BME280;23341;50.296;18.960;2023-04-09T21:17:22;51863.72;;;-144.43;100.00
37486;BME280;23341;50.296;18.960;2023-04-09T21:22:26;51879.72;;;-144.43;100.00
37486;BME280;23341;50.296;18.960;2023-04-09T21:27:32;51875.72;;;-144.43;100.00
37486;BME280;23341;50.296;18.960;2023-04-09T21:32:36;51899.72;;;-144.43;100.00
37486;BME280;23341;50.296;18.960;2023-04-09T21:37:41;51885.72;;;-144.43;100.00
37486;BME280;23341;50.296;18.960;2023-04-09T21:42:46;51895.72;;;-144.43;100.00
37486;BME280;23341;50.296;18.960;2023-04-09T21:47:51;51905.72;;;-144.43;100.00
37486;BME280;23341;50.296;18.960;2023-04-09T21:52:55;51857.72;;;-144.43;100.00
37486;BME280;23341;50.296;18.960;2023-04-09T21:58:01;51843.72;;;-144.43;100.00
37486;BME280;23341;50.296;18.960;2023-04-09T22:03:07;51875.72;;;-144.43;100.00
37486;BME280;23341;50.296;18.960;2023-04-09T22:08:12;51931.69;;;-144.43;100.00
37486;BME280;23341;50.296;18.960;2023-04-09T22:13:18;51905.72;;;-144.43;100.00
37486;BME280;23341;50.296;18.960;2023-04-09T22:18:22;51913.72;;;-144.43;100.00
37486;BME280;23341;50.296;18.960;2023-04-09T22:23:26;51877.72;;;-144.43;100.00
37486;BME280;23341;50.296;18.960;2023-04-09T22:28:32;51885.72;;;-144.43;100.00
37486;BME280;23341;50.296;18.960;2023-04-09T22:33:36;51879.72;;;-144.43;100.00
37486;BME280;23341;50.296;18.960;2023-04-09T22:38:40;51865.72;;;-144.43;100.00
37486;BME280;23341;50.296;18.960;2023-04-09T22:43:47;51873.72;;;-144.43;100.00
37486;BME280;23341;50.296;18.960;2023-04-09T22:48:52;51905.72;;;-144.43;100.00
37486;BME280;23341;50.296;18.960;2023-04-09T22:53:56;51879.72;;;-144.43;100.00
37486;BME280;23341;50.296;18.960;2023-04-09T22:59:02;51895.72;;;-144.43;100.00
37486;BME280;23341;50.296;18.960;2023-04-09T23:04:06;51897.72;;;-144.43;100.00
37486;BME280;23341;50.296;18.960;2023-04-09T23:09:10;51873.72;;;-144.43;100.00
37486;BME280;23341;50.296;18.960;2023-04-09T23:14:16;51883.72;;;-144.43;100.00
37486;BME280;23341;50.296;18.960;2023-04-09T23:19:20;51843.72;;;-144.43;100.00
37486;BME280;23341;50.296;18.960;2023-04-09T23:24:24;51835.72;;;-144.43;100.00
37486;BME280;23341;50.296;18.960;2023-04-09T23:29:30;51877.72;;;-144.43;100.00
37486;BME280;23341;50.296;18.960;2023-04-09T23:34:35;51857.72;;;-144.43;100.00
37486;BME280;23341;50.296;18.960;2023-04-09T23:39:39;51883.72;;;-144.43;100.00
37486;BME280;23341;50.296;18.960;2023-04-09T23:44:45;51903.72;;;-144.43;100.00
37486;BME280;23341;50.296;18.960;2023-04-09T23:49:49;51873.72;;;-144.43;100.00
37486;BME280;23341;50.296;18.960;2023-04-09T23:54:53;51877.72;;;-144.43;100.00
37486;BME280;23341;50.296;18.960;2023-04-09T23:59:59;51875.72;;;-144.43;100.00
